SBLS weather

Lagoa Santa Airport
Lagoa Santa, Minas Gerais, Brazil

Public forecast

Using degrees Celsius for public forecast. Weather courtesy of forecast.io.

Current aviation weather report (METAR) for Lagoa Santa Airport

Retrieved 2020/04/01 11:00 UTC (25 minutes ago):

SBLS 011100Z 16008KT 9999 FEW043 BKN070 23/19 Q1019

Closest aviation forecast (TAF) to Lagoa Santa Airport

Closest forecast is Tancredo Neves International Airport, 4.8 nm (8.9 km) WNW. Retrieved 2020/04/01 06:00 UTC (5 hours ago):

TAF SBCF 010300Z 0106/0206 14006KT CAVOK TN21/0107Z TX29/0118Z BECMG 0112/0114 32005KT 9999 SCT035 BECMG 0114/0116 10008KT BECMG 0116/0118 SCT025 FEW035TCU BECMG 0118/0120 SCT025 BECMG 0200/0202 14006KT CAVOK RMK PED